Decoded Metar for PABE (BETHEL in AK, USA) (IATA:BET) | Meteo·Mobile Aviation Weather
aviador You're here:

PABE Decoded Metar

BETHEL in AK, USA
Report Time2019-04-24 12:53:00
UTC Time2019-04-24 13:49:28
Flight Rules vfr VFR
Wind040° at 03 kt
W.Decomp.*RWY 01: 2.9 kt HW 0.8 kt RCW
RWY 30: 0.2 kt HW 3.0 kt RCW
Visibility9999 m
Phenomena:N/A
Clouds:N/A
Expected CloudBase > 400 ft AGL from Temp-Dew spread
CeilingNone
Temp-8°C (ISA -23)
Dew Point-9°C (93% RH)
AAT-12.1°C
QNH1017 hPa
Density Alt-2,789 ft
Elevation135 ft
Report Wrong Elevation
Raw Report
PABE 241253Z 04003KT 10SM CLR M08/M09 A3003 RMK AO2 SLP172
T10781094=

Extra information for PABE:More info

Metar Taf Metar & Taf Last 4 Metars F.Rules Stats Wind Profile Meteogram Temp Stats Airport Information Weather charts Add Link Nearby VenuesMetar ALERT Operation Metar Decoded Social comments

AIRNAV info for PABE